CW6538 Cattolica IT current weather conditions

sailwx.info

Wind from 216 at 1 knots gusting 4

Air temperature 9.4° C
Dewpoint 5.8° C

Last reported at 2014-Oct-30 21:44 UTC.
Time now 2014-Oct-30 22:55 UTC

Location: N 43°58' E 012°44'.
View on Google Maps.

See reports from other nearby stations

  
Tides and Currents Weather Stations Pressure Air Temp Water Temp Dewpoint Dewpoint Depression Visibility Wind Speed Wind Dir Waves Ship Positions
date/time (UTC)wind fromknots sea level pressurealtimeterstation pressurevisibilityair tempwater tempwave heightnotes
2014-Oct-30 21:44 216 1 gusting 4 9.4
2014-Oct-30 21:39 172 1 gusting 3 9.4
2014-Oct-30 21:33 172 9.4
2014-Oct-30 21:28 172 10.0
2014-Oct-30 21:23 172 10.0
2014-Oct-30 21:18 172 10.0
2014-Oct-30 21:13 172 10.0
2014-Oct-30 21:09 172 10.0
2014-Oct-30 21:03 172 10.0
2014-Oct-30 20:59 172 10.0
2014-Oct-30 20:54 172 10.0
2014-Oct-30 20:48 172 10.0
2014-Oct-30 20:43 172 10.0
2014-Oct-30 20:39 172 0 gusting 4 10.0
2014-Oct-30 20:34 172 0 gusting 4 10.0
2014-Oct-30 20:28 172 1 gusting 4 10.0
2014-Oct-30 20:18 191 1 gusting 4 10.0
2014-Oct-30 20:14 191 10.0
2014-Oct-30 20:09 192 2 gusting 4 10.0
2014-Oct-30 20:04 202 10.0
2014-Oct-30 19:58 202 10.0
2014-Oct-30 19:53 202 0 gusting 3 10.0
2014-Oct-30 19:48 202 0 gusting 2 10.6
2014-Oct-30 19:43 202 10.6
2014-Oct-30 19:39 202 1 gusting 4 10.6
2014-Oct-30 19:33 180 0 gusting 3 10.6
2014-Oct-30 19:29 180 10.6
2014-Oct-30 19:23 180 10.6
2014-Oct-30 19:18 180 10.6
2014-Oct-30 19:14 180 10.6
2014-Oct-30 19:09 180 2 gusting 6 10.6
2014-Oct-30 19:03 191 3 gusting 6 10.6
2014-Oct-30 18:59 187 1 gusting 4 11.1
2014-Oct-30 18:53 234 2 gusting 5 11.1
2014-Oct-30 18:49 223 2 gusting 5 11.1
2014-Oct-30 18:43 237 1 gusting 4 11.1
2014-Oct-30 18:38 238 0 gusting 2 11.1
2014-Oct-30 18:34 237 0 gusting 3 11.7
2014-Oct-30 18:28 237 1 gusting 2 11.7
2014-Oct-30 18:23 238 11.7
2014-Oct-30 18:19 237 0 gusting 1 11.7
2014-Oct-30 18:13 238 11.7
2014-Oct-30 18:08 238 0 gusting 1 12.2
2014-Oct-30 18:04 238 12.2
2014-Oct-30 17:58 238 0 gusting 1 12.2
2014-Oct-30 17:54 238 12.8
2014-Oct-30 17:49 238 0 gusting 3 12.8
2014-Oct-30 17:44 238 12.8
2014-Oct-30 17:39 237 13.3
2014-Oct-30 17:34 238 1 gusting 4 13.3
2014-Oct-30 17:28 313 13.3
2014-Oct-30 17:23 313 13.9
2014-Oct-30 17:19 313 13.9
2014-Oct-30 17:09 313 13.9
2014-Oct-30 17:03 313 13.9
2014-Oct-30 16:58 313 14.4
2014-Oct-30 16:54 313 14.4
2014-Oct-30 16:48 313 14.4
2014-Oct-30 16:43 313 14.4
2014-Oct-30 16:39 313 14.4
2014-Oct-30 16:33 313 14.4
2014-Oct-30 16:28 313 0 gusting 6 14.4
2014-Oct-30 16:24 330 3 gusting 8 14.4
2014-Oct-30 16:19 328 5 gusting 8 14.4
2014-Oct-30 16:14 355 2 gusting 6 15.0
2014-Oct-30 16:08 340 3 gusting 6 15.0
2014-Oct-30 16:04 310 3 gusting 7 15.0
2014-Oct-30 15:58 319 4 gusting 7 15.0
2014-Oct-30 15:53 322 5 gusting 7 15.0
2014-Oct-30 15:48 348 4 gusting 7 15.0
2014-Oct-30 15:43 333 5 gusting 8 15.0
2014-Oct-30 15:39 312 6 gusting 8 15.0
2014-Oct-30 15:34 319 5 gusting 10 15.0
2014-Oct-30 15:28 309 6 gusting 10 15.0
2014-Oct-30 15:24 333 5 gusting 9 15.0
2014-Oct-30 15:18 292 6 gusting 9 15.0
2014-Oct-30 15:13 347 5 gusting 9 15.0
2014-Oct-30 15:09 355 5 gusting 9 15.6
2014-Oct-30 15:03 009 6 gusting 11 15.6
2014-Oct-30 14:59 005 6 gusting 10 15.6
2014-Oct-30 14:54 310 6 gusting 8 15.6
2014-Oct-30 14:48 329 5 gusting 9 15.6
2014-Oct-30 14:44 319 6 gusting 9 15.6
2014-Oct-30 14:38 005 4 gusting 9 15.6
2014-Oct-30 14:34 348 6 gusting 11 15.6
2014-Oct-30 14:28 347 8 gusting 11 15.6
2014-Oct-30 14:19 329 6 gusting 11 15.6
2014-Oct-30 14:14 333 6 gusting 11 15.6
2014-Oct-30 14:08 331 6 gusting 11 15.6
2014-Oct-30 14:03 340 6 gusting 11 15.6
2014-Oct-30 13:59 311 6 gusting 12 15.6
2014-Oct-30 13:54 350 6 gusting 12 15.6
2014-Oct-30 13:49 320 7 gusting 12 15.6
2014-Oct-30 13:44 333 6 gusting 9 16.1
2014-Oct-30 13:39 319 5 gusting 11 15.6
2014-Oct-30 13:33 360 6 gusting 12 15.6
2014-Oct-30 13:28 321 9 gusting 12 15.6
2014-Oct-30 13:23 333 6 gusting 11 15.6
2014-Oct-30 13:19 315 6 gusting 11 15.6
2014-Oct-30 13:13 344 6 gusting 11 15.6
2014-Oct-30 13:09 344 6 gusting 11 15.6
2014-Oct-30 13:03 323 7 gusting 12 15.6
2014-Oct-30 12:59 355 8 gusting 13 15.6
2014-Oct-30 12:54 009 7 gusting 13 15.6
2014-Oct-30 12:49 321 6 gusting 10 15.6
2014-Oct-30 12:44 298 6 gusting 10 15.6
2014-Oct-30 12:39 312 6 gusting 13 15.6
2014-Oct-30 12:34 333 7 gusting 12 15.6
2014-Oct-30 12:29 320 6 gusting 12 15.6
2014-Oct-30 12:18 324 6 gusting 11 15.6
2014-Oct-30 12:13 012 6 gusting 12 15.6
2014-Oct-30 12:09 306 7 gusting 12 15.6
2014-Oct-30 12:03 345 7 gusting 12 15.6
2014-Oct-30 11:58 333 8 gusting 12 15.6
2014-Oct-30 11:53 326 6 gusting 16 15.6
2014-Oct-30 11:49 322 6 gusting 16 15.6
2014-Oct-30 11:43 351 6 gusting 12 15.6
2014-Oct-30 11:39 333 8 gusting 15 15.0
2014-Oct-30 11:34 304 8 gusting 15 15.0
2014-Oct-30 11:29 317 6 gusting 13 15.0
2014-Oct-30 11:24 309 6 gusting 12 15.0
2014-Oct-30 11:18 337 7 gusting 12 15.0
2014-Oct-30 11:13 321 7 gusting 12 15.0
2014-Oct-30 11:08 277 7 gusting 12 15.0
2014-Oct-30 11:04 281 6 gusting 12 15.0
2014-Oct-30 10:59 336 8 gusting 11 15.0
2014-Oct-30 10:54 286 6 gusting 16 15.0
2014-Oct-30 10:49 298 7 gusting 16 14.4
2014-Oct-30 10:44 332 6 gusting 13 14.4
2014-Oct-30 10:39 279 6 gusting 13 14.4
2014-Oct-30 10:34 302 6 gusting 15 14.4
2014-Oct-30 10:29 322 6 gusting 15 14.4
2014-Oct-30 10:24 336 5 gusting 11 14.4
2014-Oct-30 10:18 289 5 gusting 11 13.9
2014-Oct-30 10:13 303 6 gusting 13 13.9
2014-Oct-30 10:08 324 7 gusting 13 13.9
2014-Oct-30 10:04 255 7 gusting 13 13.9
2014-Oct-30 09:58 315 6 gusting 10 13.9
2014-Oct-30 09:54 296 7 gusting 13 13.9
2014-Oct-30 09:44 321 6 gusting 11 13.9
2014-Oct-30 09:38 275 3 gusting 10 13.9
2014-Oct-30 09:28 333 6 gusting 13 13.3
2014-Oct-30 09:23 275 5 gusting 13 13.3
2014-Oct-30 09:18 339 4 gusting 10 13.3
2014-Oct-30 09:14 321 6 gusting 11 13.3
2014-Oct-30 09:09 298 6 gusting 11 13.3
2014-Oct-30 09:03 295 4 gusting 11 12.8
2014-Oct-30 08:59 286 3 gusting 11 12.8
2014-Oct-30 08:54 281 3 gusting 8 12.8
2014-Oct-30 08:49 281 3 gusting 9 12.2
2014-Oct-30 08:44 284 5 gusting 9 12.2
2014-Oct-30 08:39 319 5 gusting 8 12.2
2014-Oct-30 08:33 271 4 gusting 7 12.2
2014-Oct-30 08:28 272 5 gusting 7 11.7
2014-Oct-30 08:23 304 1 gusting 5 11.1
2014-Oct-30 08:19 286 1 gusting 5 11.1
2014-Oct-30 08:14 188 10.6
2014-Oct-30 08:08 188 10.6
2014-Oct-30 08:04 188 10.0
2014-Oct-30 07:58 188 10.0
2014-Oct-30 07:53 188 0 gusting 3 9.4
2014-Oct-30 07:49 188 9.4
2014-Oct-30 07:44 188 8.9
2014-Oct-30 07:39 188 8.3
2014-Oct-30 07:33 188 8.3
2014-Oct-30 07:28 188 0 gusting 2 7.8
2014-Oct-30 07:23 188 1 gusting 3 7.8
2014-Oct-30 07:19 188 7.2
2014-Oct-30 07:13 188 7.2
2014-Oct-30 07:08 188 0 gusting 3 6.7
2014-Oct-30 07:03 188 6.1
2014-Oct-30 06:58 188 6.1
2014-Oct-30 06:54 188 6.1
2014-Oct-30 06:49 188 0 gusting 3 5.6
2014-Oct-30 06:43 188 1 gusting 2 5.6
2014-Oct-30 06:33 188 0 gusting 4 5.6
2014-Oct-30 06:28 188 0 gusting 3 5.6
2014-Oct-30 06:23 188 0 gusting 3 5.6
2014-Oct-30 06:18 188 0 gusting 4 5.0
2014-Oct-30 06:13 188 1 gusting 4 5.0
2014-Oct-30 06:09 188 0 gusting 3 5.0
2014-Oct-30 06:03 188 1 gusting 3 5.0
2014-Oct-30 05:58 188 1 gusting 3 5.0
2014-Oct-30 05:53 188 1 gusting 3 5.0
2014-Oct-30 05:49 188 1 gusting 2 5.6
2014-Oct-30 05:44 188 5.6
2014-Oct-30 05:39 188 0 gusting 4 5.6
2014-Oct-30 05:33 188 1 gusting 4 5.6
2014-Oct-30 05:28 188 0 gusting 3 5.6
2014-Oct-30 05:23 188 5.6
2014-Oct-30 05:18 188 0 gusting 3 5.6
2014-Oct-30 05:13 188 0 gusting 4 5.6
2014-Oct-30 05:08 188 1 gusting 4 5.6
2014-Oct-30 05:03 188 5.6
2014-Oct-30 04:58 188 1 gusting 3 5.6
2014-Oct-30 04:53 188 1 gusting 3 5.6
2014-Oct-30 04:48 188 1 gusting 3 5.6
2014-Oct-30 04:43 188 1 gusting 3 5.6
2014-Oct-30 04:39 188 5.6
2014-Oct-30 04:33 188 0 gusting 3 5.6
2014-Oct-30 04:29 188 1 gusting 2 5.6
2014-Oct-30 04:24 188 0 gusting 3 5.6
2014-Oct-30 04:19 188 1 gusting 2 5.6
2014-Oct-30 04:13 188 1 gusting 4 5.6
2014-Oct-30 04:08 188 2 gusting 4 6.1
2014-Oct-30 04:03 188 1 gusting 3 6.1
2014-Oct-30 03:58 188 1 gusting 4 6.1
2014-Oct-30 03:53 188 2 gusting 4 6.1
2014-Oct-30 03:49 188 1 gusting 3 6.1
2014-Oct-30 03:44 188 0 gusting 3 6.1
2014-Oct-30 03:39 188 1 gusting 3 6.1
2014-Oct-30 03:33 188 2 gusting 3 6.1
2014-Oct-30 03:29 188 6.1
2014-Oct-30 03:23 188 0 gusting 4 6.1
2014-Oct-30 03:18 188 1 gusting 4 6.1
2014-Oct-30 03:13 188 2 gusting 4 6.1
2014-Oct-30 03:08 188 6.1
2014-Oct-30 03:03 188 2 gusting 4 6.1
2014-Oct-30 02:59 188 1 gusting 4 6.1
2014-Oct-30 02:53 188 2 gusting 4 6.1
2014-Oct-30 02:48 188 0 gusting 4 6.7
2014-Oct-30 02:43 188 1 gusting 4 6.7
2014-Oct-30 02:38 188 1 gusting 4 6.7
2014-Oct-30 02:34 188 2 gusting 4 6.7
2014-Oct-30 02:28 188 2 gusting 5 6.7
2014-Oct-30 02:23 188 3 gusting 5 6.7
2014-Oct-30 02:18 188 3 gusting 5 6.7
2014-Oct-30 02:13 190 3 gusting 5 6.7
2014-Oct-30 02:09 191 6.7
2014-Oct-30 02:04 192 2 gusting 4 6.7
2014-Oct-30 01:58 191 1 gusting 4 6.7
2014-Oct-30 01:54 191 0 gusting 4 7.2
2014-Oct-30 01:49 191 1 gusting 4 7.2
2014-Oct-30 01:43 191 1 gusting 4 7.2
2014-Oct-30 01:38 191 2 gusting 4 7.2
2014-Oct-30 01:33 191 1 gusting 4 7.2
2014-Oct-30 01:29 191 2 gusting 4 7.2
2014-Oct-30 01:24 192 3 gusting 4 7.2
2014-Oct-30 01:18 191 2 gusting 5 7.2
2014-Oct-30 01:13 191 2 gusting 5 7.2
2014-Oct-30 01:08 192 2 gusting 5 7.2
2014-Oct-30 01:03 191 2 gusting 4 7.2
2014-Oct-30 00:58 191 1 gusting 3 7.8
2014-Oct-30 00:53 191 1 gusting 4 7.8
2014-Oct-30 00:48 192 2 gusting 4 7.8
2014-Oct-30 00:43 191 2 gusting 4 7.8
2014-Oct-30 00:38 192 2 gusting 4 7.8
2014-Oct-30 00:33 192 2 gusting 4 7.8
2014-Oct-30 00:28 192 2 gusting 4 7.8
2014-Oct-30 00:24 191 2 gusting 4 7.8
2014-Oct-30 00:18 192 1 gusting 4 7.8
2014-Oct-30 00:13 192 1 gusting 3 7.8
2014-Oct-30 00:08 192 1 gusting 2 7.8
2014-Oct-30 00:04 191 1 gusting 3 8.3
2014-Oct-29 23:58 192 0 gusting 4 8.3
2014-Oct-29 23:53 192 8.3
2014-Oct-29 23:49 192 0 gusting 4 8.3
2014-Oct-29 23:43 192 2 gusting 5 8.3
2014-Oct-29 23:38 191 1 gusting 5 8.3
2014-Oct-29 23:34 192 3 gusting 5 8.3
2014-Oct-29 23:29 192 3 gusting 5 8.3
2014-Oct-29 23:23 198 2 gusting 5 8.9
2014-Oct-29 23:18 198 1 gusting 4 8.9
2014-Oct-29 23:13 197 0 gusting 4 8.9
2014-Oct-29 23:08 198 8.9
2014-Oct-29 23:05 198 1 gusting 4 8.9
2014-Oct-29 22:59 197 2 gusting 4 8.9
2014-Oct-29 22:54 198 0 gusting 4 8.9
2014-Oct-29 22:48 197 0 gusting 5 8.9
2014-Oct-29 22:44 198 3 gusting 5 8.9
2014-Oct-29 22:38 197 3 gusting 5 8.9
2014-Oct-29 22:34 198 1 gusting 6 8.9
2014-Oct-29 22:28 198 3 gusting 6 8.9
2014-Oct-29 22:23 198 1 gusting 4 8.9
2014-Oct-29 22:19 198 2 gusting 5 8.9
2014-Oct-29 22:14 198 3 gusting 5 8.9
2014-Oct-29 22:08 197 1 gusting 5 8.9
2014-Oct-29 22:04 197 8.9
2014-Oct-29 21:58 198 8.9
2014-Oct-29 21:54 198 0 gusting 5 8.9
2014-Oct-29 21:48 202 2 gusting 5 8.9
2014-Oct-29 21:43 176 3 gusting 5 8.9
2014-Oct-29 21:38 175 8.9
2014-Oct-29 21:34 175 2 gusting 4 8.9
2014-Oct-29 21:29 175 0 gusting 3 8.9
2014-Oct-29 21:24 175 8.9
2014-Oct-29 21:18 175 2 gusting 4 8.9
2014-Oct-29 21:14 175 0 gusting 3 8.9
2014-Oct-29 21:08 175 0 gusting 4 8.9
2014-Oct-29 21:03 175 2 gusting 3 8.9
2014-Oct-29 20:59 175 1 gusting 2 8.9
2014-Oct-29 20:54 175 1 gusting 4 8.9
2014-Oct-29 20:49 175 2 gusting 4 8.9
2014-Oct-29 20:44 163 2 gusting 4 8.9
2014-Oct-29 20:39 163 2 gusting 4 9.4
2014-Oct-29 20:34 163 1 gusting 3 9.4
2014-Oct-29 20:28 163 2 gusting 4 9.4
2014-Oct-29 20:24 163 1 gusting 4 9.4
2014-Oct-29 20:18 163 2 gusting 4 9.4
2014-Oct-29 20:14 163 2 gusting 4 9.4
2014-Oct-29 20:08 163 2 gusting 2 10.0
2014-Oct-29 20:03 163 0 gusting 2 10.0
2014-Oct-29 19:59 163 0 gusting 3 10.0
2014-Oct-29 19:54 163 1 gusting 3 10.0
2014-Oct-29 19:48 163 2 gusting 3 10.0
2014-Oct-29 19:43 163 2 gusting 3 10.0
2014-Oct-29 19:38 163 10.0
2014-Oct-29 19:33 163 0 gusting 1 10.0
2014-Oct-29 19:28 163 0 gusting 3 10.0
2014-Oct-29 19:23 163 1 gusting 4 10.6
2014-Oct-29 19:19 163 2 gusting 4 10.6
2014-Oct-29 19:13 163 1 gusting 4 10.6
2014-Oct-29 19:08 163 1 gusting 4 10.6
2014-Oct-29 19:03 143 1 gusting 4 11.1
2014-Oct-29 18:58 143 1 gusting 4 11.1
2014-Oct-29 18:54 142 2 gusting 4 11.1
2014-Oct-29 18:48 142 2 gusting 4 11.1
2014-Oct-29 18:44 142 1 gusting 3 11.1
2014-Oct-29 18:39 142 1 gusting 2 11.1
2014-Oct-29 18:34 142 0 gusting 1 11.1
2014-Oct-29 18:29 142 11.1
2014-Oct-29 18:23 142 11.1
2014-Oct-29 18:19 142 1 gusting 4 11.1
2014-Oct-29 18:14 140 0 gusting 3 11.1
2014-Oct-29 18:09 140 1 gusting 4 11.1
2014-Oct-29 18:03 140 2 gusting 4 11.7
2014-Oct-29 17:59 140 1 gusting 4 11.7
2014-Oct-29 17:54 140 0 gusting 3 11.7
2014-Oct-29 17:49 140 11.7
2014-Oct-29 17:44 140 1 gusting 4 11.7
2014-Oct-29 17:38 140 2 gusting 4 11.7
2014-Oct-29 17:34 128 1 gusting 4 11.7
2014-Oct-29 17:29 127 2 gusting 4 11.7
2014-Oct-29 17:24 126 1 gusting 3 12.2
2014-Oct-29 17:19 126 1 gusting 4 12.2
2014-Oct-29 17:13 126 2 gusting 4 12.2
2014-Oct-29 17:09 126 1 gusting 2 12.2
2014-Oct-29 17:03 114 1 gusting 2 12.8
2014-Oct-29 16:59 114 12.8
2014-Oct-29 16:53 114 0 gusting 3 12.8
2014-Oct-29 16:48 114 1 gusting 2 12.8
2014-Oct-29 16:44 114 13.3
2014-Oct-29 16:38 114 0 gusting 4 13.3
2014-Oct-29 16:34 114 0 gusting 4 13.3
2014-Oct-29 16:28 107 1 gusting 3 13.9
2014-Oct-29 16:24 019 0 gusting 3 13.9
2014-Oct-29 16:18 017 13.9
2014-Oct-29 16:13 017 13.9
2014-Oct-29 16:08 017 14.4
2014-Oct-29 16:03 017 14.4
2014-Oct-29 15:59 017 14.4
2014-Oct-29 15:54 017 14.4
2014-Oct-29 15:49 017 0 gusting 4 14.4
2014-Oct-29 15:44 017 0 gusting 4 14.4
2014-Oct-29 15:38 017 14.4
2014-Oct-29 15:34 005 3 gusting 5 14.4
2014-Oct-29 15:29 016 3 gusting 5 14.4
2014-Oct-29 15:24 355 0 gusting 6 14.4
2014-Oct-29 15:19 355 3 gusting 6 14.4
2014-Oct-29 15:14 012 3 gusting 6 14.4
2014-Oct-29 15:09 005 2 gusting 6 14.4
2014-Oct-29 15:04 360 4 gusting 6 14.4
2014-Oct-29 14:59 355 2 gusting 5 15.0
2014-Oct-29 14:54 015 2 gusting 6 15.0
2014-Oct-29 14:48 360 1 gusting 6 15.0
2014-Oct-29 14:44 360 3 gusting 6 15.0
2014-Oct-29 14:38 039 3 gusting 6 15.0
2014-Oct-29 14:34 015 5 gusting 7 15.0
2014-Oct-29 14:28 017 4 gusting 7 15.0
2014-Oct-29 14:23 360 2 gusting 6 15.0
2014-Oct-29 14:19 348 3 gusting 6 15.0
2014-Oct-29 14:08 011 5 gusting 7 15.0
2014-Oct-29 14:03 030 4 gusting 7 15.0
2014-Oct-29 13:58 015 3 gusting 7 15.0
2014-Oct-29 13:53 013 5 gusting 7 15.6
2014-Oct-29 13:48 046 3 gusting 6 15.6
2014-Oct-29 13:43 011 3 gusting 6 15.6
2014-Oct-29 13:38 018 4 gusting 6 15.6
2014-Oct-29 13:33 020 3 gusting 6 15.6
2014-Oct-29 13:29 017 4 gusting 6 15.0
2014-Oct-29 13:23 320 3 gusting 7 15.0
2014-Oct-29 13:18 011 4 gusting 7 15.6
2014-Oct-29 13:13 026 2 gusting 7 15.6
2014-Oct-29 13:09 028 5 gusting 7 15.6
2014-Oct-29 13:03 020 4 gusting 7 15.6
2014-Oct-29 12:58 034 5 gusting 7 15.6
2014-Oct-29 12:54 349 3 gusting 7 15.6
2014-Oct-29 12:48 342 6 gusting 7 15.0
2014-Oct-29 12:44 355 5 gusting 7 15.6
2014-Oct-29 12:33 350 3 gusting 7 15.0
2014-Oct-29 12:29 325 5 gusting 8 15.0
2014-Oct-29 12:24 005 5 gusting 7 15.0
2014-Oct-29 12:13 344 6 gusting 8 15.6
2014-Oct-29 12:08 355 4 gusting 8 15.6
2014-Oct-29 12:04 005 6 gusting 8 15.0
2014-Oct-29 11:58 345 4 gusting 8 15.0
2014-Oct-29 11:54 316 5 gusting 8 15.0
2014-Oct-29 11:48 331 6 gusting 10 15.0
2014-Oct-29 11:43 005 3 gusting 10 15.6
2014-Oct-29 11:38 355 5 gusting 8 15.0
2014-Oct-29 11:34 346 4 gusting 8 15.0
2014-Oct-29 11:29 005 5 gusting 8 15.0
2014-Oct-29 11:23 349 6 gusting 8 15.0
2014-Oct-29 11:18 360 5 gusting 8 15.0
2014-Oct-29 11:13 017 5 gusting 9 15.0
2014-Oct-29 11:08 333 6 gusting 9 15.0
2014-Oct-29 11:03 343 6 gusting 8 15.0
2014-Oct-29 10:53 317 5 gusting 9 14.4
2014-Oct-29 10:48 316 6 gusting 9 14.4
2014-Oct-29 10:43 355 5 gusting 8 14.4
2014-Oct-29 10:39 292 4 gusting 7 14.4
2014-Oct-29 10:34 311 3 gusting 7 14.4
2014-Oct-29 10:28 344 5 gusting 7 13.9
2014-Oct-29 10:24 323 4 gusting 10 13.9
2014-Oct-29 10:18 341 5 gusting 10 13.9
2014-Oct-29 10:13 313 5 gusting 7 13.9
2014-Oct-29 10:09 349 4 gusting 8 13.9
2014-Oct-29 10:03 283 5 gusting 8 13.9
2014-Oct-29 09:59 347 5 gusting 8 13.9
2014-Oct-29 09:53 344 2 gusting 7 13.9
2014-Oct-29 09:48 285 4 gusting 7 13.9
2014-Oct-29 09:43 346 5 gusting 7 13.3
2014-Oct-29 09:38 284 4 gusting 8 13.3
2014-Oct-29 09:33 333 6 gusting 7 13.3
2014-Oct-29 09:28 351 4 gusting 8 13.3
2014-Oct-29 09:23 334 6 gusting 8 13.3
2014-Oct-29 09:18 325 4 gusting 8 13.3
2014-Oct-29 09:13 016 3 gusting 6 13.3
2014-Oct-29 09:09 281 3 gusting 9 13.3
2014-Oct-29 09:03 339 4 gusting 9 12.8
2014-Oct-29 08:58 290 2 gusting 6 12.8
2014-Oct-29 08:53 349 0 gusting 6 12.2
2014-Oct-29 08:48 315 4 gusting 7 12.2
2014-Oct-29 08:44 261 5 gusting 8 11.7
2014-Oct-29 08:39 331 5 gusting 8 11.7
2014-Oct-29 08:34 317 4 gusting 8 11.7
2014-Oct-29 08:29 320 4 gusting 9 11.7
2014-Oct-29 08:24 355 6 gusting 9 11.7
2014-Oct-29 08:18 320 3 gusting 8 11.7
2014-Oct-29 08:14 288 6 gusting 7 11.7
2014-Oct-29 08:08 268 3 gusting 7 11.7
2014-Oct-29 07:58 292 3 gusting 7 11.1
2014-Oct-29 07:54 282 4 gusting 7 11.1
2014-Oct-29 07:48 275 3 gusting 5 11.1
2014-Oct-29 07:44 293 2 gusting 5 11.1
2014-Oct-29 07:38 283 1 gusting 6 11.1
2014-Oct-29 07:33 266 3 gusting 6 11.1
2014-Oct-29 07:28 282 3 gusting 5 11.1
2014-Oct-29 07:23 256 0 gusting 4 11.1
2014-Oct-29 07:18 268 1 gusting 8 11.1
2014-Oct-29 07:13 287 6 gusting 8 11.1
2014-Oct-29 07:08 304 0 gusting 8 11.1
2014-Oct-29 07:03 307 4 gusting 8 11.1
2014-Oct-29 06:58 263 3 gusting 7 11.1
2014-Oct-29 06:53 350 4 gusting 7 11.1
2014-Oct-29 06:48 246 1 gusting 4 11.1
2014-Oct-29 06:43 283 0 gusting 6 11.1
2014-Oct-29 06:39 269 2 gusting 7 11.1
2014-Oct-29 06:34 294 4 gusting 8 11.1
2014-Oct-29 06:29 271 5 gusting 8 11.1
2014-Oct-29 06:24 267 3 gusting 8 11.1
2014-Oct-29 06:18 286 4 gusting 9 11.1
2014-Oct-29 06:13 320 5 gusting 9 11.1
2014-Oct-29 06:08 289 6 gusting 9 11.1
2014-Oct-29 06:04 308 4 gusting 10 11.1
2014-Oct-29 05:53 305 3 gusting 8 11.1
2014-Oct-29 05:48 295 4 gusting 8 11.1
2014-Oct-29 05:43 284 4 gusting 9 11.1
2014-Oct-29 05:39 271 5 gusting 9 11.1
2014-Oct-29 05:33 300 5 gusting 8 11.1
2014-Oct-29 05:29 272 4 gusting 8 11.1
2014-Oct-29 05:24 313 5 gusting 7 11.7
2014-Oct-29 05:13 304 4 gusting 7 11.7
2014-Oct-29 05:09 307 4 gusting 7 11.7
2014-Oct-29 05:03 265 1 gusting 6 11.7
2014-Oct-29 04:58 286 2 gusting 6 11.7
2014-Oct-29 04:53 301 2 gusting 6 11.7
2014-Oct-29 04:48 284 5 gusting 6 11.7
2014-Oct-29 04:44 299 4 gusting 6 11.7
2014-Oct-29 04:38 269 2 gusting 7 11.7
2014-Oct-29 04:33 275 5 gusting 7 11.7
2014-Oct-29 04:28 275 5 gusting 7 11.7
2014-Oct-29 04:23 309 3 gusting 7 11.7
2014-Oct-29 04:18 293 2 gusting 6 11.7
2014-Oct-29 04:13 294 3 gusting 6 11.7
2014-Oct-29 04:08 292 2 gusting 5 11.7
2014-Oct-29 04:03 281 1 gusting 5 11.7
2014-Oct-29 03:58 279 0 gusting 5 11.7
2014-Oct-29 03:53 279 3 gusting 5 11.7
2014-Oct-29 03:49 279 11.7
2014-Oct-29 03:43 279 0 gusting 3 11.7
2014-Oct-29 03:38 279 1 gusting 4 11.7
2014-Oct-29 03:33 279 1 gusting 4 11.7
2014-Oct-29 03:28 286 1 gusting 6 11.7
2014-Oct-29 03:23 278 2 gusting 6 11.7
2014-Oct-29 03:18 325 1 gusting 4 11.7
2014-Oct-29 03:13 300 0 gusting 4 11.7
2014-Oct-29 03:09 302 0 gusting 6 11.7
2014-Oct-29 03:03 287 2 gusting 6 11.7
2014-Oct-29 02:58 277 4 gusting 7 11.7
2014-Oct-29 02:53 296 3 gusting 7 11.7
2014-Oct-29 02:49 288 2 gusting 5 11.7
2014-Oct-29 02:43 273 2 gusting 4 11.7
2014-Oct-29 02:38 013 1 gusting 4 11.7
2014-Oct-29 02:33 306 1 gusting 4 11.7
2014-Oct-29 02:29 305 0 gusting 5 11.7
2014-Oct-29 02:24 294 1 gusting 5 11.7
2014-Oct-29 02:18 311 11.7
2014-Oct-29 02:13 314 0 gusting 5 11.7
2014-Oct-29 02:08 236 11.7
2014-Oct-29 02:04 236 11.1
2014-Oct-29 01:59 236 11.1
2014-Oct-29 01:53 236 11.1
2014-Oct-29 01:48 236 11.1
2014-Oct-29 01:43 236 11.1
2014-Oct-29 01:38 236 11.1
2014-Oct-29 01:33 236 11.1
2014-Oct-29 01:28 236 11.1
2014-Oct-29 01:23 236 0 gusting 4 11.1
2014-Oct-29 01:18 250 0 gusting 4 11.1
2014-Oct-29 01:13 244 11.1
2014-Oct-29 01:08 244 0 gusting 5 11.1
2014-Oct-29 01:03 244 11.1
2014-Oct-29 00:58 204 11.1
2014-Oct-29 00:53 204 0 gusting 3 11.1
2014-Oct-29 00:49 204 11.1
2014-Oct-29 00:43 204 11.1
2014-Oct-29 00:39 204 11.1
2014-Oct-29 00:33 204 11.1
2014-Oct-29 00:28 204 11.1
2014-Oct-29 00:23 204 11.1
2014-Oct-29 00:18 204 11.1
2014-Oct-29 00:14 204 11.1
2014-Oct-29 00:09 204 11.1
2014-Oct-29 00:03 204 11.1
2014-Oct-28 23:54 204 11.1
2014-Oct-28 23:49 204 11.1
2014-Oct-28 23:44 204 11.1
2014-Oct-28 23:39 204 11.1
2014-Oct-28 23:33 204 0 gusting 3 11.1
2014-Oct-28 23:29 204 11.1
2014-Oct-28 23:24 204 0 gusting 4 11.1
2014-Oct-28 23:18 204 0 gusting 4 11.1
2014-Oct-28 23:14 204 0 gusting 4 11.7
2014-Oct-28 23:09 204 11.7
2014-Oct-28 23:04 204 11.7
2014-Oct-28 22:58 204 0 gusting 3 11.7
2014-Oct-28 22:53 204 11.1
2014-Oct-28 22:48 204 0 gusting 2 11.1
2014-Oct-28 22:28 204 11.7
2014-Oct-28 22:24 204 11.7
2014-Oct-28 22:19 204 0 gusting 2 11.7
2014-Oct-28 22:13 204 0 gusting 3 11.7
2014-Oct-28 22:08 204 11.7
2014-Oct-28 22:03 204 11.7